createdAt,value
2018-12-22T00:02:08.654Z,1.60
2018-12-22T00:04:37.061Z,1.57
2018-12-22T00:07:05.423Z,1.65
2018-12-22T00:09:33.934Z,1.30
2018-12-22T00:12:02.335Z,1.33
2018-12-22T00:14:30.740Z,1.30
2018-12-22T00:16:59.229Z,1.50
2018-12-22T00:19:27.639Z,1.23
2018-12-22T00:21:56.235Z,1.32
2018-12-22T00:24:24.674Z,1.50
2018-12-22T00:26:53.018Z,1.12
2018-12-22T00:29:21.442Z,1.60
2018-12-22T00:31:49.832Z,1.30
2018-12-22T00:34:18.263Z,1.67
2018-12-22T00:36:46.645Z,1.35
2018-12-22T00:39:15.222Z,1.50
2018-12-22T00:41:43.731Z,1.15
2018-12-22T00:44:12.092Z,1.30
2018-12-22T00:46:40.454Z,1.23
2018-12-22T00:49:08.853Z,1.60
2018-12-22T00:51:37.201Z,1.20
2018-12-22T00:54:05.572Z,1.30
2018-12-22T00:56:34.022Z,1.37
2018-12-22T00:59:02.506Z,1.40
2018-12-22T01:01:31.067Z,1.20
2018-12-22T01:03:59.421Z,1.20
2018-12-22T01:06:27.950Z,1.23
2018-12-22T01:08:56.392Z,1.13
2018-12-22T01:11:25.703Z,1.52
2018-12-22T01:13:54.054Z,1.57
2018-12-22T01:16:25.396Z,1.67
2018-12-22T01:18:53.810Z,1.32
2018-12-22T01:21:22.578Z,1.35
2018-12-22T01:23:50.979Z,1.60
2018-12-22T01:26:19.382Z,1.35
2018-12-22T01:28:47.783Z,1.27
2018-12-22T01:31:16.150Z,1.10
2018-12-22T01:33:44.518Z,1.97
2018-12-22T01:36:13.027Z,1.50
2018-12-22T01:38:41.427Z,1.30
2018-12-22T01:41:09.844Z,1.50
2018-12-22T01:43:38.346Z,1.50
2018-12-22T01:46:06.759Z,1.50
2018-12-22T01:48:35.670Z,1.60
2018-12-22T01:51:04.205Z,1.40
2018-12-22T01:53:32.648Z,1.20
2018-12-22T01:56:01.583Z,1.60
2018-12-22T01:58:29.966Z,1.83
2018-12-22T02:00:58.377Z,1.30
2018-12-22T02:03:26.840Z,1.70
2018-12-22T02:05:55.209Z,1.60
2018-12-22T02:08:23.577Z,1.60
2018-12-22T02:10:51.928Z,1.70
2018-12-22T02:13:20.382Z,1.30
2018-12-22T02:15:48.757Z,1.70
2018-12-22T02:18:17.154Z,1.40
2018-12-22T02:20:52.227Z,1.67
2018-12-22T02:23:20.648Z,1.33
2018-12-22T02:25:49.017Z,1.30
2018-12-22T02:28:17.414Z,1.97
2018-12-22T02:30:45.814Z,1.30
2018-12-22T02:33:14.220Z,1.37
2018-12-22T02:35:42.842Z,1.50
2018-12-22T02:38:11.242Z,1.30
2018-12-22T02:40:40.602Z,1.40
2018-12-22T02:43:08.962Z,1.40
2018-12-22T02:45:37.453Z,1.57
2018-12-22T02:48:05.980Z,1.53
2018-12-22T02:50:34.431Z,1.47
2018-12-22T02:53:02.868Z,1.40
2018-12-22T02:55:31.218Z,1.67
2018-12-22T02:57:59.630Z,1.55
2018-12-22T03:00:28.018Z,1.50
2018-12-22T03:02:56.427Z,1.43
2018-12-22T03:05:24.885Z,1.62
2018-12-22T03:07:53.538Z,1.70
2018-12-22T03:10:22.011Z,1.70
2018-12-22T03:12:50.381Z,1.60
2018-12-22T03:15:19.866Z,1.80
2018-12-22T03:17:48.266Z,1.50
2018-12-22T03:20:16.659Z,1.60
2018-12-22T03:22:45.110Z,1.50
2018-12-22T03:25:13.499Z,1.63
2018-12-22T03:27:41.875Z,1.30
2018-12-22T03:30:10.361Z,1.53
2018-12-22T03:32:38.762Z,1.50
2018-12-22T03:35:07.340Z,1.70
2018-12-22T03:37:35.766Z,1.40
2018-12-22T03:40:05.364Z,1.20
2018-12-22T03:42:33.761Z,1.80
2018-12-22T03:45:02.233Z,1.50
2018-12-22T03:47:30.692Z,1.30
2018-12-22T03:49:59.123Z,1.43
2018-12-22T03:52:27.487Z,1.10
2018-12-22T03:54:57.325Z,1.20
2018-12-22T03:57:25.719Z,1.40
2018-12-22T03:59:54.075Z,1.20
2018-12-22T04:02:22.443Z,1.33
2018-12-22T04:04:50.937Z,1.70
2018-12-22T04:07:19.324Z,1.43
2018-12-22T04:09:47.720Z,1.53
2018-12-22T04:12:16.116Z,1.80
2018-12-22T04:14:44.629Z,1.30
2018-12-22T04:17:12.985Z,1.23
2018-12-22T04:19:41.373Z,1.50
2018-12-22T04:22:09.865Z,1.55
2018-12-22T04:24:38.290Z,1.43
2018-12-22T04:27:06.667Z,1.40
2018-12-22T04:29:35.098Z,1.70
2018-12-22T04:32:03.626Z,1.63
2018-12-22T04:34:32.001Z,1.90
2018-12-22T04:37:00.474Z,1.33
2018-12-22T04:39:28.852Z,1.77
2018-12-22T04:41:57.183Z,1.80
2018-12-22T04:44:25.542Z,1.72
2018-12-22T04:46:53.953Z,1.67
2018-12-22T04:49:22.302Z,2.30
2018-12-22T04:51:50.791Z,1.47
2018-12-22T04:54:19.260Z,1.90
2018-12-22T04:56:47.646Z,2.10
2018-12-22T04:59:16.604Z,1.70
2018-12-22T05:01:45.100Z,1.72
2018-12-22T05:04:13.449Z,1.95
2018-12-22T05:06:41.930Z,2.10
2018-12-22T05:09:11.165Z,1.95
2018-12-22T05:11:39.584Z,1.77
2018-12-22T05:14:07.923Z,1.82
2018-12-22T05:16:36.455Z,2.10
2018-12-22T05:19:04.881Z,1.90
2018-12-22T05:21:33.572Z,1.63
2018-12-22T05:24:01.908Z,2.27
2018-12-22T05:26:30.284Z,1.90
2018-12-22T05:28:58.680Z,2.53
2018-12-22T05:31:27.066Z,1.97
2018-12-22T05:33:55.400Z,1.93
2018-12-22T05:36:23.833Z,2.30
2018-12-22T05:38:52.192Z,1.90
2018-12-22T05:41:20.605Z,1.57
2018-12-22T05:43:48.991Z,2.50
2018-12-22T05:46:17.487Z,1.95
2018-12-22T05:48:45.906Z,2.00
2018-12-22T05:51:14.313Z,2.33
2018-12-22T05:53:42.670Z,2.00
2018-12-22T05:56:11.107Z,2.30
2018-12-22T05:58:39.462Z,2.40
2018-12-22T06:01:07.844Z,1.90
2018-12-22T06:03:36.273Z,2.10
2018-12-22T06:06:04.689Z,2.00
2018-12-22T06:08:33.089Z,2.07
2018-12-22T06:11:01.498Z,1.43
2018-12-22T06:13:29.927Z,2.07
2018-12-22T06:15:58.314Z,2.03
2018-12-22T06:18:26.718Z,1.53
2018-12-22T06:20:55.127Z,1.50
2018-12-22T06:23:23.493Z,1.37
2018-12-22T06:25:51.995Z,1.40
2018-12-22T06:28:20.366Z,1.70
2018-12-22T06:30:48.442Z,1.10
2018-12-22T06:33:16.783Z,1.27
2018-12-22T06:35:45.298Z,1.40
2018-12-22T06:38:13.695Z,1.55
2018-12-22T06:40:42.100Z,1.10
2018-12-22T06:43:10.473Z,1.35
2018-12-22T06:45:38.819Z,1.20
2018-12-22T06:48:07.248Z,1.20
2018-12-22T06:50:35.656Z,1.17
2018-12-22T06:53:04.041Z,1.10
2018-12-22T06:55:32.382Z,1.20
2018-12-22T06:58:00.767Z,0.90
2018-12-22T07:00:29.134Z,1.20
2018-12-22T07:02:57.536Z,1.17
2018-12-22T07:05:26.583Z,0.90
2018-12-22T07:07:54.941Z,1.13
2018-12-22T07:10:25.470Z,1.07
2018-12-22T07:12:53.682Z,0.90
2018-12-22T07:15:22.202Z,0.97
2018-12-22T07:17:50.603Z,0.93
2018-12-22T07:20:18.992Z,1.00
2018-12-22T07:22:47.645Z,1.40
2018-12-22T07:25:16.022Z,0.90
2018-12-22T07:27:44.415Z,0.90
2018-12-22T07:30:12.837Z,1.00
2018-12-22T07:32:41.266Z,1.00
2018-12-22T07:35:09.763Z,1.20
2018-12-22T07:37:38.198Z,1.00
2018-12-22T07:40:06.775Z,0.80
2018-12-22T07:42:35.204Z,1.00
2018-12-22T07:45:03.948Z,1.07
2018-12-22T07:47:32.312Z,1.00
2018-12-22T07:50:00.740Z,1.00
2018-12-22T07:52:29.069Z,0.90
2018-12-22T07:54:58.162Z,0.97
2018-12-22T07:57:26.727Z,1.32
2018-12-22T07:59:55.108Z,0.90
2018-12-22T08:02:23.575Z,1.02
2018-12-22T08:04:52.269Z,0.80
2018-12-22T08:07:21.027Z,0.90
2018-12-22T08:09:49.822Z,0.80
2018-12-22T08:12:18.414Z,0.80
2018-12-22T08:14:47.138Z,0.90
2018-12-22T08:17:15.737Z,1.00
2018-12-22T08:19:44.424Z,1.10
2018-12-22T08:22:13.068Z,1.10
2018-12-22T08:24:41.735Z,1.20
2018-12-22T08:27:10.358Z,1.10
2018-12-22T08:29:39.087Z,1.82
2018-12-22T08:32:08.385Z,1.20
2018-12-22T08:34:39.098Z,1.00
2018-12-22T08:37:07.742Z,0.93
2018-12-22T08:39:37.134Z,0.90
2018-12-22T08:42:05.881Z,1.27
2018-12-22T08:44:34.700Z,1.17
2018-12-22T08:47:06.869Z,1.10
2018-12-22T08:49:37.377Z,1.57
2018-12-22T08:52:07.780Z,1.30
2018-12-22T08:54:38.139Z,0.80
2018-12-22T08:57:08.262Z,1.40
2018-12-22T08:59:37.365Z,1.50
2018-12-22T09:02:07.673Z,1.07
2018-12-22T09:04:37.772Z,1.40
2018-12-22T09:07:06.610Z,1.33
2018-12-22T09:09:38.060Z,1.03
2018-12-22T09:12:07.209Z,1.07
2018-12-22T09:14:36.440Z,1.00
2018-12-22T09:17:07.009Z,1.00
2018-12-22T09:19:35.679Z,1.10
2018-12-22T09:22:07.729Z,1.10
2018-12-22T09:24:46.208Z,0.73
2018-12-22T09:27:20.995Z,0.90
2018-12-22T09:29:53.436Z,1.00
2018-12-22T09:32:34.574Z,0.76
2018-12-22T09:35:09.426Z,0.80
2018-12-22T09:37:41.014Z,0.80
2018-12-22T09:40:11.843Z,0.80
2018-12-22T09:42:40.567Z,1.00
2018-12-22T09:45:09.538Z,1.10
2018-12-22T09:47:38.348Z,1.30
2018-12-22T09:50:10.602Z,0.90
2018-12-22T09:52:39.389Z,1.03
2018-12-22T09:55:08.407Z,1.00
2018-12-22T09:57:37.182Z,1.30
2018-12-22T10:00:08.471Z,1.30
2018-12-22T10:02:37.178Z,1.37
2018-12-22T10:05:08.065Z,1.57
2018-12-22T10:07:37.304Z,1.85
2018-12-22T10:10:10.411Z,1.63
2018-12-22T10:12:39.329Z,1.83
2018-12-22T10:15:08.251Z,1.85
2018-12-22T10:17:37.020Z,1.93
2018-12-22T10:20:06.633Z,1.90
2018-12-22T10:22:36.529Z,1.73
2018-12-22T10:25:08.545Z,1.83
2018-12-22T10:27:37.263Z,1.63
2018-12-22T10:30:09.536Z,1.63
2018-12-22T10:32:38.299Z,1.63
2018-12-22T10:35:09.966Z,2.00
2018-12-22T10:37:38.389Z,1.93
2018-12-22T10:40:07.879Z,2.13
2018-12-22T10:42:37.577Z,2.22
2018-12-22T10:45:06.994Z,1.77
2018-12-22T10:47:35.406Z,1.70
2018-12-22T10:50:04.590Z,1.90
2018-12-22T10:52:33.909Z,1.60
2018-12-22T10:55:02.352Z,1.50
2018-12-22T10:57:30.736Z,1.57
2018-12-22T10:59:59.122Z,1.80
2018-12-22T11:02:28.475Z,1.90
2018-12-22T11:04:56.895Z,1.63
2018-12-22T11:07:25.319Z,1.77
2018-12-22T11:09:53.708Z,2.00
2018-12-22T11:12:22.191Z,1.60
2018-12-22T11:14:50.887Z,1.93
2018-12-22T11:17:19.272Z,2.10
2018-12-22T11:19:47.658Z,1.50
2018-12-22T11:22:16.111Z,1.80
2018-12-22T11:24:46.304Z,2.00
2018-12-22T11:27:14.714Z,1.40
2018-12-22T11:29:46.238Z,2.30
2018-12-22T11:32:14.714Z,1.63
2018-12-22T11:34:43.793Z,1.70
2018-12-22T11:37:12.465Z,1.40
2018-12-22T11:39:40.888Z,1.20
2018-12-22T11:42:09.259Z,1.33
2018-12-22T11:44:37.676Z,1.60
2018-12-22T11:47:13.606Z,1.50
2018-12-22T11:49:43.669Z,1.50
2018-12-22T11:52:18.493Z,1.72
2018-12-22T11:54:47.501Z,1.50
2018-12-22T11:57:16.316Z,2.20
2018-12-22T11:59:48.170Z,2.30
2018-12-22T12:02:16.637Z,1.53
2018-12-22T12:04:45.026Z,1.30
2018-12-22T12:07:13.443Z,1.23
2018-12-22T12:09:41.879Z,1.57
2018-12-22T12:12:10.284Z,1.12
2018-12-22T12:14:38.668Z,1.10
2018-12-22T12:19:17.638Z,1.17
2018-12-22T12:21:46.090Z,1.00
2018-12-22T12:24:15.338Z,0.90
2018-12-22T12:26:44.745Z,1.00
2018-12-22T12:29:13.147Z,1.13
2018-12-22T12:31:41.545Z,0.90
2018-12-22T12:34:09.896Z,0.80
2018-12-22T12:39:28.599Z,1.00
2018-12-22T12:41:56.962Z,0.90
2018-12-22T12:44:25.519Z,1.00
2018-12-22T12:46:55.006Z,1.10
2018-12-22T12:49:23.660Z,1.30
2018-12-22T12:51:52.492Z,1.03
2018-12-22T12:54:21.776Z,1.10
2018-12-22T12:56:54.419Z,1.87
2018-12-22T12:59:23.112Z,1.03
2018-12-22T13:01:51.490Z,1.10
2018-12-22T13:04:20.367Z,1.30
2018-12-22T13:06:48.723Z,1.20
2018-12-22T13:09:18.043Z,1.10
2018-12-22T13:11:46.679Z,1.60
2018-12-22T13:14:18.542Z,1.90
2018-12-22T13:16:46.879Z,1.40
2018-12-22T13:19:15.288Z,1.30
2018-12-22T13:21:47.549Z,1.63
2018-12-22T13:24:18.451Z,2.17
2018-12-22T13:26:46.860Z,1.90
2018-12-22T13:29:15.759Z,1.37
2018-12-22T13:31:45.451Z,1.77
2018-12-22T13:34:14.083Z,1.97
2018-12-22T13:36:43.256Z,1.85
2018-12-22T13:39:31.440Z,1.33
2018-12-22T13:42:02.739Z,1.63
2018-12-22T13:44:32.537Z,1.87
2018-12-22T13:47:02.782Z,2.30
2018-12-22T13:52:16.308Z,2.45
2018-12-22T13:54:50.587Z,1.62
2018-12-22T13:57:19.152Z,2.30
2018-12-22T14:08:40.901Z,2.15
2018-12-22T14:11:09.601Z,2.13
2018-12-22T14:13:39.803Z,1.63
2018-12-22T14:16:15.914Z,1.80
2018-12-22T14:18:55.603Z,1.63
2018-12-22T14:21:27.158Z,1.90
2018-12-22T14:25:01.181Z,1.70
2018-12-22T14:27:30.067Z,1.85
2018-12-22T14:29:58.454Z,1.70
2018-12-22T15:03:53.945Z,1.75
2018-12-22T15:06:22.329Z,1.90
2018-12-22T15:08:50.963Z,2.23
2018-12-22T15:11:20.829Z,1.97
2018-12-22T15:16:33.488Z,2.22
2018-12-22T15:19:02.312Z,2.00
2018-12-22T15:21:30.783Z,1.70
2018-12-22T15:23:59.220Z,1.70
2018-12-22T15:26:27.744Z,2.07
2018-12-22T15:28:56.122Z,2.10
2018-12-22T15:31:25.492Z,1.90
2018-12-22T15:33:54.720Z,1.90
2018-12-22T15:36:24.109Z,1.90
2018-12-22T15:38:52.513Z,1.73
2018-12-22T15:41:20.940Z,2.50
2018-12-22T15:43:53.865Z,2.00
2018-12-22T15:46:22.227Z,2.30
2018-12-22T15:48:50.713Z,3.05
2018-12-22T15:51:19.166Z,2.33
2018-12-22T15:53:48.671Z,2.00
2018-12-22T15:56:17.089Z,2.10
2018-12-22T15:58:45.468Z,2.13
2018-12-22T16:01:13.923Z,2.27
2018-12-22T16:03:42.365Z,3.30
2018-12-22T16:06:10.881Z,2.77
2018-12-22T16:08:41.985Z,2.10
2018-12-22T16:11:10.598Z,2.83
2018-12-22T16:13:41.659Z,2.67
2018-12-22T16:16:10.023Z,1.50
2018-12-22T16:18:38.489Z,3.10
2018-12-22T16:21:07.831Z,1.90
2018-12-22T16:23:36.286Z,2.43
2018-12-22T16:26:05.576Z,2.40
2018-12-22T16:28:40.462Z,1.63
2018-12-22T16:31:09.770Z,2.00
2018-12-22T16:33:39.221Z,2.70
2018-12-22T16:36:07.637Z,1.77
2018-12-22T16:38:36.219Z,2.45
2018-12-22T16:41:04.668Z,2.13
2018-12-22T16:43:33.137Z,2.40
2018-12-22T16:46:01.848Z,1.98
2018-12-22T16:48:30.843Z,1.83
2018-12-22T16:50:59.546Z,2.53
2018-12-22T16:53:28.296Z,2.30
2018-12-22T16:55:57.689Z,2.70
2018-12-22T16:58:30.406Z,1.73
2018-12-22T17:01:37.795Z,2.60
2018-12-22T17:04:06.543Z,2.20
2018-12-22T17:06:35.286Z,1.87
2018-12-22T17:09:04.534Z,2.37
2018-12-22T17:11:33.096Z,2.70
2018-12-22T17:14:02.877Z,2.20
2018-12-22T17:16:32.212Z,2.20
2018-12-22T17:19:00.705Z,2.10
2018-12-22T17:21:36.435Z,2.83
2018-12-22T17:25:14.040Z,2.23
2018-12-22T17:27:42.603Z,2.13
2018-12-22T17:30:12.818Z,2.47
2018-12-22T17:32:42.943Z,1.90
2018-12-22T17:35:17.363Z,2.20
2018-12-22T17:37:45.956Z,3.10
2018-12-22T17:40:16.658Z,3.17
2018-12-22T17:42:45.191Z,2.23
2018-12-22T17:45:14.032Z,2.53
2018-12-22T17:47:42.974Z,2.53
2018-12-22T17:50:11.474Z,2.20
2018-12-22T17:52:39.914Z,2.42
2018-12-22T17:55:13.026Z,2.55
2018-12-22T17:57:42.103Z,2.90
2018-12-22T18:00:12.358Z,3.27
2018-12-22T18:02:42.059Z,2.70
2018-12-22T18:05:10.668Z,2.50
2018-12-22T18:07:39.189Z,2.23
2018-12-22T18:10:10.641Z,2.80
2018-12-22T18:12:41.463Z,3.13
2018-12-22T18:15:13.824Z,3.07
2018-12-22T18:17:43.454Z,3.10
2018-12-22T18:20:13.243Z,3.25
2018-12-22T18:22:41.710Z,2.60
2018-12-22T18:25:11.818Z,2.40
2018-12-22T18:27:40.253Z,3.70
2018-12-22T18:30:10.892Z,3.57
2018-12-22T18:32:39.577Z,3.53
2018-12-22T18:35:09.899Z,3.60
2018-12-22T18:37:38.345Z,3.50
2018-12-22T18:40:11.349Z,3.20
2018-12-22T18:42:39.915Z,2.70
2018-12-22T18:45:10.989Z,3.20
2018-12-22T18:47:39.572Z,2.50
2018-12-22T18:50:13.133Z,3.00
2018-12-22T18:52:41.621Z,3.30
2018-12-22T18:55:10.845Z,2.70
2018-12-22T18:57:39.323Z,3.17
2018-12-22T19:00:14.103Z,3.30
2018-12-22T19:02:42.627Z,2.75
2018-12-22T19:05:11.190Z,2.60
2018-12-22T19:07:39.559Z,2.90
2018-12-22T19:10:13.240Z,2.97
2018-12-22T19:12:41.638Z,2.52
2018-12-22T19:15:10.350Z,2.27
2018-12-22T19:17:38.953Z,2.87
2018-12-22T19:20:11.710Z,2.50
2018-12-22T19:22:40.236Z,2.33
2018-12-22T19:25:08.906Z,2.40
2018-12-22T19:27:37.322Z,2.90
2018-12-22T19:30:06.038Z,2.70
2018-12-22T19:32:34.548Z,2.67
2018-12-22T19:35:03.192Z,3.30
2018-12-22T19:37:31.658Z,2.25
2018-12-22T19:40:00.321Z,5.13
2018-12-22T19:42:28.751Z,3.87
2018-12-22T19:44:57.340Z,2.87
2018-12-22T19:47:26.005Z,2.10
2018-12-22T19:49:54.506Z,2.77
2018-12-22T19:52:23.043Z,2.87
2018-12-22T19:54:51.465Z,2.83
2018-12-22T19:57:20.867Z,3.20
2018-12-22T19:59:49.900Z,2.40
2018-12-22T20:02:18.369Z,2.87
2018-12-22T20:04:46.807Z,3.40
2018-12-22T20:07:15.335Z,3.30
2018-12-22T20:09:43.725Z,2.80
2018-12-22T20:12:12.302Z,3.53
2018-12-22T20:14:40.714Z,3.30
2018-12-22T20:17:09.145Z,3.80
2018-12-22T20:19:37.592Z,4.17
2018-12-22T20:22:06.221Z,3.03
2018-12-22T20:24:34.678Z,3.30
2018-12-22T20:27:03.132Z,3.30
2018-12-22T20:29:31.551Z,2.63
2018-12-22T20:32:00.136Z,3.10
2018-12-22T20:34:28.577Z,3.58
2018-12-22T20:36:56.972Z,3.70
2018-12-22T20:39:25.433Z,3.83
2018-12-22T20:41:53.844Z,3.00
2018-12-22T20:44:22.565Z,2.50
2018-12-22T20:46:51.150Z,3.20
2018-12-22T20:49:19.551Z,2.98
2018-12-22T20:51:48.035Z,3.40
2018-12-22T20:54:16.482Z,3.33
2018-12-22T20:56:45.020Z,2.70
2018-12-22T20:59:13.548Z,3.20
2018-12-22T21:01:41.982Z,2.70
2018-12-22T21:04:10.407Z,2.95
2018-12-22T21:06:38.826Z,4.07
2018-12-22T21:09:08.176Z,2.80
2018-12-22T21:11:38.404Z,3.17
2018-12-22T21:14:07.181Z,3.17
2018-12-22T21:16:36.787Z,3.40
2018-12-22T21:19:05.462Z,3.40
2018-12-22T21:21:33.899Z,3.00
2018-12-22T21:24:02.583Z,3.20
2018-12-22T21:26:31.153Z,3.43
2018-12-22T21:28:59.718Z,3.93
2018-12-22T21:31:28.147Z,2.53
2018-12-22T21:33:56.688Z,2.95
2018-12-22T21:36:25.210Z,3.80
2018-12-22T21:38:53.631Z,2.65
2018-12-22T21:41:22.994Z,2.73
2018-12-22T21:43:51.869Z,3.00
2018-12-22T21:46:20.435Z,2.87
2018-12-22T21:48:48.902Z,3.00
2018-12-22T21:51:17.392Z,2.93
2018-12-22T21:53:45.891Z,2.70
2018-12-22T21:56:14.509Z,2.93
2018-12-22T21:58:42.954Z,2.40
2018-12-22T22:01:11.736Z,3.63
2018-12-22T22:03:40.204Z,2.73
2018-12-22T22:06:08.630Z,3.27
2018-12-22T22:08:37.052Z,3.57
2018-12-22T22:11:05.459Z,2.20
2018-12-22T22:13:33.933Z,2.43
2018-12-22T22:16:02.442Z,2.80
2018-12-22T22:18:30.878Z,3.07
2018-12-22T22:20:59.238Z,2.67
2018-12-22T22:23:27.737Z,2.05
2018-12-22T22:25:57.106Z,2.57
2018-12-22T22:28:25.795Z,2.77
2018-12-22T22:30:54.250Z,3.70
2018-12-22T22:33:22.797Z,3.10
2018-12-22T22:35:51.261Z,3.30
2018-12-22T22:38:20.418Z,2.10
2018-12-22T22:40:48.879Z,2.53
2018-12-22T22:43:17.488Z,3.10
2018-12-22T22:45:45.992Z,2.60
2018-12-22T22:48:14.587Z,3.10
2018-12-22T22:50:43.010Z,3.80
2018-12-22T22:53:11.651Z,3.75
2018-12-22T22:55:40.093Z,3.57
2018-12-22T22:58:08.505Z,3.80
2018-12-22T23:00:37.534Z,4.10
2018-12-22T23:03:07.780Z,3.70
2018-12-22T23:05:36.349Z,3.13
2018-12-22T23:08:04.855Z,4.33
2018-12-22T23:10:33.406Z,4.57
2018-12-22T23:13:01.859Z,4.57
2018-12-22T23:15:30.723Z,3.93
2018-12-22T23:17:59.679Z,3.27
2018-12-22T23:20:28.060Z,3.70
2018-12-22T23:22:56.529Z,3.33
2018-12-22T23:25:24.991Z,3.23
2018-12-22T23:27:54.305Z,4.00
2018-12-22T23:30:23.110Z,3.60
2018-12-22T23:32:51.471Z,3.37
2018-12-22T23:35:21.971Z,3.57
2018-12-22T23:37:50.842Z,3.60
2018-12-22T23:40:19.280Z,3.30
2018-12-22T23:42:48.011Z,4.00
2018-12-22T23:45:16.425Z,4.23
2018-12-22T23:47:44.907Z,2.90
2018-12-22T23:50:13.543Z,3.07
2018-12-22T23:52:43.591Z,3.87
2018-12-22T23:55:13.462Z,3.23
2018-12-22T23:57:44.527Z,3.63
